Time;durP1;ratioP1;P1;durP2;ratioP2;P2;SDS_P1;SDS_P2;PMS_P1;PMS_P2;Temp;Humidity;BMP_temperature;BMP_pressure;BME280_temperature;BME280_humidity;BME280_pressure;Samples;Min_cycle;Max_cycle;Signal;HPM_P1;HPM_P2
2024/03/29 01:47:33;;;;;;;1.90;0.60;;;;;;;;;;10435215;28;20514;-73
2024/03/29 01:52:37;;;;;;;1.75;0.80;;;;;;;;;;10455839;28;20047;-73
2024/03/29 01:57:40;;;;;;;2.65;0.90;;;;;;;;;;10459063;28;20111;-75
2024/03/29 02:02:43;;;;;;;0.95;0.70;;;;;;;;;;10447953;28;20059;-73
2024/03/29 02:07:47;;;;;;;1.55;0.70;;;;;;;;;;10454796;28;20501;-73
2024/03/29 02:12:50;;;;;;;1.25;0.55;;;;;;;;;;10442138;28;20048;-73
2024/03/29 02:17:52;;;;;;;1.85;0.93;;;;;;;;;;10439303;28;20071;-73
2024/03/29 02:23:00;;;;;;;2.08;0.65;;;;;;;;;;10441651;28;20057;-73
2024/03/29 02:28:05;;;;;;;5.05;0.88;;;;;;;;;;10427132;28;20051;-73
2024/03/29 02:33:07;;;;;;;1.92;0.80;;;;;;;;;;10443685;28;20056;-73
2024/03/29 02:38:09;;;;;;;2.17;1.00;;;;;;;;;;10445797;28;20457;-73
2024/03/29 02:43:13;;;;;;;3.22;1.00;;;;;;;;;;10443322;28;20055;-73
2024/03/29 02:48:16;;;;;;;1.20;0.80;;;;;;;;;;10453775;28;20040;-73
2024/03/29 02:53:18;;;;;;;2.45;1.05;;;;;;;;;;10453940;28;20048;-73
2024/03/29 02:58:21;;;;;;;1.63;0.80;;;;;;;;;;10458748;28;20662;-73
2024/03/29 03:03:27;;;;;;;1.65;0.80;;;;;;;;;;10451211;28;20036;-73
2024/03/29 03:13:51;;;;;;;1.65;0.85;;;;;;;;;;10454312;28;20053;-73
2024/03/29 03:18:53;;;;;;;1.67;1.00;;;;;;;;;;10449011;28;20048;-73
2024/03/29 03:23:56;;;;;;;1.55;0.95;;;;;;;;;;10452264;28;20040;-73
2024/03/29 03:28:59;;;;;;;1.77;0.70;;;;;;;;;;10453481;28;20056;-73
2024/03/29 03:34:02;;;;;;;2.20;0.90;;;;;;;;;;10452117;28;20056;-73
2024/03/29 03:39:04;;;;;;;1.35;0.80;;;;;;;;;;10460299;28;20655;-73
2024/03/29 03:44:08;;;;;;;2.35;0.90;;;;;;;;;;10457302;28;20053;-73
2024/03/29 03:49:10;;;;;;;1.27;0.90;;;;;;;;;;10451002;28;20052;-73
2024/03/29 03:54:12;;;;;;;2.03;1.05;;;;;;;;;;10450158;28;20041;-73
2024/03/29 03:59:17;;;;;;;2.38;0.95;;;;;;;;;;10447894;28;20053;-73
2024/03/29 04:04:19;;;;;;;1.20;0.80;;;;;;;;;;10453295;28;20045;-73
2024/03/29 04:09:21;;;;;;;1.45;0.80;;;;;;;;;;10457098;28;20571;-73
2024/03/29 04:14:25;;;;;;;1.80;1.30;;;;;;;;;;10445625;28;20056;-74
2024/03/29 04:19:27;;;;;;;1.45;0.80;;;;;;;;;;10440923;28;20045;-73
2024/03/29 04:24:30;;;;;;;2.17;1.13;;;;;;;;;;10444811;28;20054;-73
2024/03/29 04:29:33;;;;;;;2.70;0.95;;;;;;;;;;10456671;28;20056;-74
2024/03/29 04:34:36;;;;;;;1.02;0.90;;;;;;;;;;10451120;28;20586;-73
2024/03/29 04:39:38;;;;;;;2.50;0.70;;;;;;;;;;10448446;28;20408;-73
2024/03/29 04:44:42;;;;;;;1.50;0.98;;;;;;;;;;10437871;28;20052;-73
2024/03/29 04:49:44;;;;;;;1.52;0.90;;;;;;;;;;10449140;28;20053;-73
2024/03/29 04:54:47;;;;;;;1.40;0.90;;;;;;;;;;10446272;28;20056;-73
2024/03/29 04:59:50;;;;;;;1.20;0.90;;;;;;;;;;10447044;28;20041;-73
2024/03/29 05:04:53;;;;;;;2.03;0.80;;;;;;;;;;10438189;28;20055;-73
2024/03/29 05:09:56;;;;;;;1.00;0.60;;;;;;;;;;10445321;28;20059;-73
2024/03/29 05:15:00;;;;;;;1.73;0.80;;;;;;;;;;10449052;28;20045;-74
2024/03/29 05:20:02;;;;;;;1.10;0.60;;;;;;;;;;10447806;28;20049;-75
2024/03/29 05:25:07;;;;;;;1.30;0.60;;;;;;;;;;10440455;28;20076;-73
2024/03/29 05:30:12;;;;;;;1.55;1.02;;;;;;;;;;10443108;28;20044;-72
2024/03/29 05:35:15;;;;;;;1.00;0.60;;;;;;;;;;10433446;28;20051;-72
2024/03/29 05:40:17;;;;;;;2.65;0.85;;;;;;;;;;10432293;28;20045;-72
2024/03/29 05:45:31;;;;;;;2.05;0.77;;;;;;;;;;10454042;28;20116;-73
2024/03/29 05:50:33;;;;;;;1.77;0.82;;;;;;;;;;10448915;28;20036;-73
2024/03/29 05:55:36;;;;;;;1.08;0.85;;;;;;;;;;10433509;28;20049;-73
2024/03/29 06:00:40;;;;;;;1.35;0.98;;;;;;;;;;10447182;28;20056;-73
2024/03/29 06:05:42;;;;;;;1.83;1.00;;;;;;;;;;10446605;28;20098;-73
2024/03/29 06:10:44;;;;;;;2.13;1.02;;;;;;;;;;10447331;28;20053;-73
2024/03/29 06:21:09;;;;;;;1.27;0.90;;;;;;;;;;10447822;28;20045;-73
2024/03/29 06:26:11;;;;;;;2.33;0.90;;;;;;;;;;10453251;28;20040;-72
2024/03/29 06:31:15;;;;;;;1.70;0.88;;;;;;;;;;10454494;28;20044;-72
2024/03/29 06:36:17;;;;;;;1.67;0.60;;;;;;;;;;10439460;28;20048;-73
2024/03/29 06:41:19;;;;;;;1.10;0.60;;;;;;;;;;10450175;28;20063;-73
2024/03/29 06:46:23;;;;;;;1.08;0.70;;;;;;;;;;10448262;28;20045;-73
2024/03/29 06:51:25;;;;;;;1.83;0.88;;;;;;;;;;10453076;28;20045;-73
2024/03/29 06:56:29;;;;;;;2.05;1.00;;;;;;;;;;10453170;28;20059;-73
2024/03/29 07:01:33;;;;;;;1.08;0.85;;;;;;;;;;10445493;28;20076;-73
2024/03/29 07:06:37;;;;;;;0.82;0.80;;;;;;;;;;10453952;28;20048;-72
2024/03/29 07:11:39;;;;;;;1.42;0.65;;;;;;;;;;10430423;28;20601;-72
2024/03/29 07:16:43;;;;;;;1.48;0.65;;;;;;;;;;10430779;28;20518;-73
2024/03/29 07:21:46;;;;;;;1.20;0.75;;;;;;;;;;10448242;28;20573;-72
2024/03/29 07:26:48;;;;;;;2.25;0.82;;;;;;;;;;10445401;28;20048;-73
2024/03/29 07:31:53;;;;;;;1.45;0.50;;;;;;;;;;10453967;28;20575;-73
2024/03/29 07:36:55;;;;;;;0.60;0.50;;;;;;;;;;10444695;28;20045;-73
2024/03/29 07:41:57;;;;;;;2.50;1.30;;;;;;;;;;10445231;28;20045;-72
2024/03/29 07:47:01;;;;;;;1.25;0.80;;;;;;;;;;10448026;28;20053;-73
2024/03/29 07:52:05;;;;;;;1.02;0.65;;;;;;;;;;10449301;28;20493;-73
2024/03/29 07:57:08;;;;;;;0.60;0.60;;;;;;;;;;10451657;28;20045;-73
2024/03/29 08:02:12;;;;;;;0.85;0.47;;;;;;;;;;10443545;28;20530;-73
2024/03/29 08:07:15;;;;;;;1.02;0.52;;;;;;;;;;10450523;28;20056;-73
2024/03/29 08:12:17;;;;;;;0.30;0.30;;;;;;;;;;10448391;28;20049;-73
2024/03/29 08:17:22;;;;;;;0.95;0.60;;;;;;;;;;10446125;28;20422;-73
2024/03/29 08:22:24;;;;;;;1.05;0.50;;;;;;;;;;10452920;28;20049;-73
2024/03/29 08:27:27;;;;;;;0.40;0.40;;;;;;;;;;10439874;28;20041;-73
2024/03/29 08:32:31;;;;;;;0.45;0.38;;;;;;;;;;10452407;28;20063;-73
2024/03/29 08:37:33;;;;;;;0.73;0.52;;;;;;;;;;10455527;28;20047;-73
2024/03/29 08:42:37;;;;;;;1.23;0.50;;;;;;;;;;10444805;28;20055;-73
2024/03/29 08:47:41;;;;;;;0.57;0.50;;;;;;;;;;10421999;28;20169;-72
2024/03/29 08:52:45;;;;;;;0.80;0.40;;;;;;;;;;10443303;28;20045;-73
2024/03/29 08:57:47;;;;;;;1.00;0.80;;;;;;;;;;10433544;28;20060;-73
2024/03/29 09:02:51;;;;;;;1.95;1.70;;;;;;;;;;10439179;28;20055;-73
2024/03/29 09:07:53;;;;;;;2.33;1.80;;;;;;;;;;10448143;28;20048;-73
2024/03/29 09:12:56;;;;;;;2.08;0.82;;;;;;;;;;10439302;28;20087;-73
2024/03/29 09:18:03;;;;;;;0.80;0.60;;;;;;;;;;10445599;28;20045;-73
2024/03/29 09:23:05;;;;;;;0.68;0.50;;;;;;;;;;10446045;28;20040;-73
2024/03/29 09:28:09;;;;;;;1.17;0.50;;;;;;;;;;10441619;28;20040;-73
2024/03/29 09:33:13;;;;;;;0.90;0.65;;;;;;;;;;10448232;28;20137;-73
2024/03/29 09:38:16;;;;;;;1.73;0.80;;;;;;;;;;10442097;28;20040;-73
2024/03/29 09:43:19;;;;;;;0.80;0.70;;;;;;;;;;10435008;28;20052;-73
2024/03/29 09:48:23;;;;;;;0.75;0.47;;;;;;;;;;10437275;28;20040;-73
2024/03/29 09:53:26;;;;;;;2.33;0.60;;;;;;;;;;10437144;28;20048;-73
2024/03/29 09:58:28;;;;;;;1.88;0.80;;;;;;;;;;10447755;28;20049;-73
2024/03/29 10:03:33;;;;;;;1.17;0.70;;;;;;;;;;10448316;28;20053;-73
2024/03/29 10:08:36;;;;;;;1.25;0.70;;;;;;;;;;10458701;28;20041;-73
2024/03/29 10:13:38;;;;;;;1.70;1.40;;;;;;;;;;10455213;28;20490;-73
2024/03/29 10:18:44;;;;;;;2.80;1.02;;;;;;;;;;10451715;28;20057;-73
2024/03/29 10:23:47;;;;;;;1.77;0.80;;;;;;;;;;10451810;28;20040;-73
2024/03/29 10:28:51;;;;;;;3.05;1.05;;;;;;;;;;10452326;28;20049;-73
2024/03/29 10:33:55;;;;;;;0.52;0.50;;;;;;;;;;10453430;28;20053;-73
2024/03/29 10:38:57;;;;;;;0.60;0.45;;;;;;;;;;10443570;28;20064;-72
2024/03/29 10:44:03;;;;;;;1.75;0.60;;;;;;;;;;10405036;28;20061;-73
2024/03/29 10:49:09;;;;;;;;;;;;;;;;;;10432229;28;20057;-73
2024/03/29 10:54:12;;;;;;;1.98;0.93;;;;;;;;;;10430117;28;19920;-73
2024/03/29 10:59:22;;;;;;;0.93;0.57;;;;;;;;;;10449181;28;20632;-73
2024/03/29 11:04:33;;;;;;;0.75;0.45;;;;;;;;;;10447389;28;20503;-73
2024/03/29 11:09:37;;;;;;;0.73;0.55;;;;;;;;;;10431436;28;20379;-73
2024/03/29 11:14:46;;;;;;;0.90;0.60;;;;;;;;;;10454600;28;20404;-73
2024/03/29 11:19:50;;;;;;;1.38;0.60;;;;;;;;;;10448408;28;20051;-73
2024/03/29 11:24:52;;;;;;;1.20;0.80;;;;;;;;;;10456779;28;20052;-73
2024/03/29 11:29:55;;;;;;;1.85;0.47;;;;;;;;;;10449768;28;20060;-73
2024/03/29 11:35:02;;;;;;;1.50;0.52;;;;;;;;;;10455188;28;20067;-73
2024/03/29 11:40:06;;;;;;;1.58;0.70;;;;;;;;;;10452407;28;20040;-73
2024/03/29 11:45:10;;;;;;;2.50;0.77;;;;;;;;;;10446794;28;20543;-73
2024/03/29 11:50:14;;;;;;;1.83;0.90;;;;;;;;;;10448202;28;20428;-73
2024/03/29 11:55:18;;;;;;;1.80;0.90;;;;;;;;;;10450530;28;20040;-73
2024/03/29 12:00:20;;;;;;;1.42;0.90;;;;;;;;;;10448906;28;20044;-73
2024/03/29 12:05:24;;;;;;;1.48;0.90;;;;;;;;;;10451569;28;20559;-73
2024/03/29 12:10:28;;;;;;;1.70;1.00;;;;;;;;;;10452983;28;20056;-72
2024/03/29 12:15:31;;;;;;;1.65;0.75;;;;;;;;;;10455143;28;20044;-73
2024/03/29 12:20:35;;;;;;;1.05;0.70;;;;;;;;;;10449807;28;20053;-73
2024/03/29 12:25:38;;;;;;;1.60;0.93;;;;;;;;;;10429848;28;20052;-73
2024/03/29 12:30:42;;;;;;;1.45;0.80;;;;;;;;;;10439126;28;20108;-73
2024/03/29 12:35:48;;;;;;;1.70;0.80;;;;;;;;;;10449120;28;20545;-73
2024/03/29 12:40:52;;;;;;;0.60;0.50;;;;;;;;;;10454386;28;20457;-73
2024/03/29 12:45:54;;;;;;;0.55;0.40;;;;;;;;;;10446018;28;20395;-73
2024/03/29 12:50:58;;;;;;;0.75;0.60;;;;;;;;;;10452445;28;20413;-73
2024/03/29 12:56:00;;;;;;;1.73;0.80;;;;;;;;;;10450289;28;20509;-73
2024/03/29 13:01:03;;;;;;;1.30;0.40;;;;;;;;;;10444011;28;20505;-73
2024/03/29 13:06:07;;;;;;;0.55;0.43;;;;;;;;;;10449669;28;20087;-73
2024/03/29 13:11:10;;;;;;;0.70;0.47;;;;;;;;;;10443281;28;20332;-73
2024/03/29 13:16:13;;;;;;;0.50;0.40;;;;;;;;;;10451838;28;20106;-73
2024/03/29 13:21:17;;;;;;;1.20;0.60;;;;;;;;;;10452517;28;20052;-73
2024/03/29 13:26:19;;;;;;;0.55;0.52;;;;;;;;;;10455671;28;20044;-73
2024/03/29 13:31:23;;;;;;;0.57;0.57;;;;;;;;;;10448389;28;20040;-73
2024/03/29 13:36:27;;;;;;;0.47;0.35;;;;;;;;;;10453774;28;20809;-73
2024/03/29 13:41:29;;;;;;;0.50;0.30;;;;;;;;;;10429341;28;20045;-73
2024/03/29 13:46:32;;;;;;;0.57;0.38;;;;;;;;;;10446936;28;20044;-73
2024/03/29 13:51:36;;;;;;;0.82;0.35;;;;;;;;;;10450007;28;20052;-73
2024/03/29 13:56:38;;;;;;;0.40;0.40;;;;;;;;;;10450924;28;20048;-72
2024/03/29 14:01:40;;;;;;;0.60;0.50;;;;;;;;;;10448713;28;20461;-73
2024/03/29 14:06:44;;;;;;;0.35;0.35;;;;;;;;;;10447641;28;20055;-73
2024/03/29 14:11:46;;;;;;;0.82;0.40;;;;;;;;;;10452627;28;20064;-73
2024/03/29 14:16:49;;;;;;;0.90;0.40;;;;;;;;;;10444438;28;20079;-73
2024/03/29 14:21:52;;;;;;;0.20;0.20;;;;;;;;;;10433993;28;20051;-73
2024/03/29 14:26:55;;;;;;;0.32;0.20;;;;;;;;;;10449479;28;20694;-73
2024/03/29 14:31:57;;;;;;;0.10;0.10;;;;;;;;;;10455129;28;20063;-73
2024/03/29 14:37:01;;;;;;;0.20;0.20;;;;;;;;;;10445250;28;20075;-73
2024/03/29 14:42:05;;;;;;;0.57;0.30;;;;;;;;;;10442973;28;20053;-73
2024/03/29 14:47:08;;;;;;;0.20;0.20;;;;;;;;;;10449776;28;20044;-73
2024/03/29 14:52:11;;;;;;;0.20;0.20;;;;;;;;;;10457093;28;20041;-73
2024/03/29 14:57:14;;;;;;;0.43;0.20;;;;;;;;;;10456846;28;20341;-73
2024/03/29 15:02:16;;;;;;;0.82;0.47;;;;;;;;;;10446207;28;20082;-73
2024/03/29 15:07:20;;;;;;;1.15;0.60;;;;;;;;;;10445707;28;20048;-73
2024/03/29 15:12:22;;;;;;;2.70;0.57;;;;;;;;;;10444416;28;20074;-73
2024/03/29 15:17:24;;;;;;;0.50;0.50;;;;;;;;;;10448663;28;20068;-73
2024/03/29 15:22:28;;;;;;;1.13;0.90;;;;;;;;;;10446709;28;20059;-73
2024/03/29 15:32:47;;;;;;;0.82;0.65;;;;;;;;;;10448179;28;20045;-73
2024/03/29 15:37:50;;;;;;;1.50;0.80;;;;;;;;;;10454579;28;20064;-73
2024/03/29 15:42:53;;;;;;;1.45;1.20;;;;;;;;;;10450127;28;20151;-73
2024/03/29 15:47:55;;;;;;;2.60;0.90;;;;;;;;;;10446612;28;20127;-73
2024/03/29 15:52:59;;;;;;;0.90;0.77;;;;;;;;;;10448239;28;20056;-73
2024/03/29 15:58:01;;;;;;;1.00;0.68;;;;;;;;;;10443817;28;20263;-73
2024/03/29 16:03:04;;;;;;;1.42;0.80;;;;;;;;;;10457537;28;20044;-73
2024/03/29 16:08:08;;;;;;;0.95;0.80;;;;;;;;;;10456849;28;20044;-73
2024/03/29 16:13:11;;;;;;;1.17;0.70;;;;;;;;;;10443416;28;20126;-73
2024/03/29 16:18:13;;;;;;;1.23;0.70;;;;;;;;;;10446683;28;20558;-73
2024/03/29 16:23:17;;;;;;;1.77;0.70;;;;;;;;;;10445444;28;20045;-73
2024/03/29 16:28:21;;;;;;;0.40;0.40;;;;;;;;;;10445787;28;20177;-73
2024/03/29 16:33:24;;;;;;;1.95;0.50;;;;;;;;;;10448713;28;20510;-73
2024/03/29 16:38:27;;;;;;;0.80;0.70;;;;;;;;;;10449592;28;20045;-73
2024/03/29 16:43:30;;;;;;;4.65;2.72;;;;;;;;;;10442737;28;20423;-73
2024/03/29 16:48:32;;;;;;;4.22;1.88;;;;;;;;;;10448347;28;20094;-73
2024/03/29 16:53:37;;;;;;;1.88;1.02;;;;;;;;;;10447778;28;20044;-73
2024/03/29 16:58:39;;;;;;;0.90;0.75;;;;;;;;;;10447202;28;20044;-73
2024/03/29 17:03:41;;;;;;;0.85;0.60;;;;;;;;;;10436812;28;20056;-73
2024/03/29 17:08:45;;;;;;;1.88;1.33;;;;;;;;;;10432243;28;20063;-73
2024/03/29 17:13:47;;;;;;;3.50;1.80;;;;;;;;;;10443414;28;20049;-73
2024/03/29 17:18:50;;;;;;;3.13;1.60;;;;;;;;;;10440727;28;20602;-73
2024/03/29 17:23:54;;;;;;;2.05;1.40;;;;;;;;;;10443560;28;20298;-73
2024/03/29 17:28:56;;;;;;;3.83;2.33;;;;;;;;;;10449001;28;20052;-73
2024/03/29 17:33:59;;;;;;;3.35;1.70;;;;;;;;;;10445121;28;20053;-73
2024/03/29 17:39:03;;;;;;;1.90;1.20;;;;;;;;;;10423843;28;20658;-73
2024/03/29 17:44:06;;;;;;;1.27;0.95;;;;;;;;;;10442472;28;20277;-73
2024/03/29 17:49:12;;;;;;;0.98;0.80;;;;;;;;;;10441788;28;20048;-73
2024/03/29 17:54:15;;;;;;;1.25;0.85;;;;;;;;;;10446209;28;21810;-73
2024/03/29 17:59:18;;;;;;;2.58;1.10;;;;;;;;;;10450946;28;20048;-73
2024/03/29 18:04:20;;;;;;;1.23;0.93;;;;;;;;;;10447571;28;20052;-73
2024/03/29 18:09:24;;;;;;;1.67;1.02;;;;;;;;;;10443501;28;20056;-73
2024/03/29 18:14:26;;;;;;;1.45;1.20;;;;;;;;;;10447898;28;20041;-73
2024/03/29 18:19:29;;;;;;;2.33;1.35;;;;;;;;;;10438856;28;20044;-73
2024/03/29 18:24:32;;;;;;;2.28;1.80;;;;;;;;;;10454180;28;20047;-73
2024/03/29 18:29:34;;;;;;;2.88;2.05;;;;;;;;;;10455437;28;20071;-73
2024/03/29 18:34:37;;;;;;;2.08;1.70;;;;;;;;;;10428654;28;20502;-73
2024/03/29 18:39:41;;;;;;;2.22;1.48;;;;;;;;;;10447134;28;20387;-73
2024/03/29 18:44:43;;;;;;;1.85;1.52;;;;;;;;;;10448379;28;20048;-73
2024/03/29 18:49:45;;;;;;;2.80;1.67;;;;;;;;;;10451408;28;20052;-73
2024/03/29 18:54:49;;;;;;;2.38;1.45;;;;;;;;;;10455549;28;20071;-73
2024/03/29 18:59:51;;;;;;;1.83;1.63;;;;;;;;;;10451957;28;20055;-73
2024/03/29 19:04:54;;;;;;;2.53;1.92;;;;;;;;;;10450446;28;20075;-73
2024/03/29 19:09:57;;;;;;;2.38;2.13;;;;;;;;;;10448818;28;20044;-73
2024/03/29 19:15:05;;;;;;;3.03;2.63;;;;;;;;;;10435017;28;20056;-73
2024/03/29 19:20:09;;;;;;;3.22;2.55;;;;;;;;;;10452124;28;20044;-73
2024/03/29 19:25:13;;;;;;;4.07;2.80;;;;;;;;;;10451564;28;20115;-72
2024/03/29 19:30:16;;;;;;;3.70;2.17;;;;;;;;;;10451894;28;20052;-73
2024/03/29 19:35:19;;;;;;;2.83;2.15;;;;;;;;;;10443977;28;20787;-73
2024/03/29 19:40:23;;;;;;;2.47;2.08;;;;;;;;;;10453305;28;20045;-73
2024/03/29 19:45:25;;;;;;;3.42;2.38;;;;;;;;;;10447004;28;20052;-73
2024/03/29 19:50:27;;;;;;;2.45;1.83;;;;;;;;;;10432635;28;20061;-73
2024/03/29 19:55:31;;;;;;;2.38;2.08;;;;;;;;;;10431921;28;20041;-73
2024/03/29 20:00:34;;;;;;;2.55;1.98;;;;;;;;;;10454891;28;20040;-73
2024/03/29 20:05:36;;;;;;;2.03;1.67;;;;;;;;;;10449693;28;20769;-73
2024/03/29 20:10:41;;;;;;;2.58;2.03;;;;;;;;;;10452311;28;20068;-73
2024/03/29 20:15:45;;;;;;;2.85;1.98;;;;;;;;;;10448973;28;20485;-73
2024/03/29 20:20:48;;;;;;;2.92;2.47;;;;;;;;;;10448485;28;20053;-73
2024/03/29 20:25:52;;;;;;;4.35;3.05;;;;;;;;;;10444220;28;20060;-73
2024/03/29 20:30:54;;;;;;;4.25;3.20;;;;;;;;;;10441062;28;20405;-73
2024/03/29 20:35:56;;;;;;;2.72;2.53;;;;;;;;;;10452441;28;20051;-73
2024/03/29 20:41:03;;;;;;;3.20;2.35;;;;;;;;;;10450834;28;20040;-73
2024/03/29 20:46:06;;;;;;;;;;;;;;;;;;10446742;28;20494;-73
2024/03/29 20:51:08;;;;;;;3.00;2.22;;;;;;;;;;10443406;28;19982;-73
2024/03/29 20:56:12;;;;;;;2.72;2.10;;;;;;;;;;10445226;28;20049;-73
2024/03/29 21:05:29;;;;;;;5.13;2.47;;;;;;;;;;10448774;28;20094;-73
2024/03/29 21:06:38;;;;;;;4.38;2.60;;;;;;;;;;10445701;28;20079;-73
2024/03/29 21:11:41;;;;;;;2.55;2.10;;;;;;;;;;10444945;28;20055;-73
2024/03/29 21:16:44;;;;;;;5.10;2.08;;;;;;;;;;10450530;28;20043;-73
2024/03/29 21:21:46;;;;;;;2.88;2.10;;;;;;;;;;10452337;28;20528;-73
2024/03/29 21:26:51;;;;;;;3.03;2.42;;;;;;;;;;10450682;28;20036;-73
2024/03/29 21:31:53;;;;;;;3.20;2.40;;;;;;;;;;10442533;28;20048;-73
2024/03/29 21:36:56;;;;;;;3.90;3.10;;;;;;;;;;10425803;28;20396;-73
2024/03/29 21:42:01;;;;;;;4.75;3.40;;;;;;;;;;10447486;28;20044;-73
2024/03/29 21:47:04;;;;;;;5.75;3.95;;;;;;;;;;10451415;28;20505;-73
2024/03/29 21:52:06;;;;;;;4.80;3.50;;;;;;;;;;10449388;28;20520;-73
2024/03/29 21:57:11;;;;;;;5.22;3.42;;;;;;;;;;10472456;28;20045;-73
2024/03/29 22:02:14;;;;;;;7.78;5.47;;;;;;;;;;10456364;28;20159;-73
2024/03/29 22:07:16;;;;;;;7.78;5.43;;;;;;;;;;10446795;28;20064;-73
2024/03/29 22:12:20;;;;;;;6.50;4.22;;;;;;;;;;10443781;28;20040;-73
2024/03/29 22:17:23;;;;;;;5.47;3.22;;;;;;;;;;10447866;28;20071;-73
2024/03/29 22:22:25;;;;;;;12.55;7.45;;;;;;;;;;10447785;28;20386;-73
2024/03/29 22:27:29;;;;;;;9.55;5.63;;;;;;;;;;10445669;28;20048;-73
2024/03/29 22:32:31;;;;;;;8.02;4.93;;;;;;;;;;10438784;28;20071;-73
2024/03/29 22:37:34;;;;;;;8.73;5.50;;;;;;;;;;10446235;28;20045;-73
2024/03/29 22:42:37;;;;;;;8.75;5.60;;;;;;;;;;10448089;28;20367;-73
2024/03/29 22:47:39;;;;;;;6.05;4.32;;;;;;;;;;10450821;28;20048;-73
2024/03/29 22:52:42;;;;;;;8.00;4.82;;;;;;;;;;10450741;28;20047;-73
2024/03/29 22:57:45;;;;;;;5.82;3.75;;;;;;;;;;10436251;28;20438;-73
2024/03/29 23:02:48;;;;;;;3.67;2.92;;;;;;;;;;10449387;28;20045;-73
2024/03/29 23:07:50;;;;;;;3.97;3.10;;;;;;;;;;10453190;28;20395;-73
2024/03/29 23:12:54;;;;;;;5.05;3.70;;;;;;;;;;10453500;28;20044;-72
2024/03/29 23:23:30;;;;;;;6.05;3.17;;;;;;;;;;10263582;28;20132;-73
2024/03/29 23:28:36;;;;;;;4.80;3.05;;;;;;;;;;10251658;28;20043;-73
2024/03/29 23:33:39;;;;;;;3.90;3.42;;;;;;;;;;10250745;28;20179;-73
2024/03/29 23:38:41;;;;;;;5.13;3.00;;;;;;;;;;10244358;28;20055;-73
2024/03/29 23:43:45;;;;;;;3.10;2.42;;;;;;;;;;10245424;28;20070;-73
2024/03/29 23:48:47;;;;;;;2.95;2.55;;;;;;;;;;10256476;28;20050;-73
2024/03/29 23:53:49;;;;;;;3.25;2.35;;;;;;;;;;10242333;28;20048;-73
2024/03/29 23:58:53;;;;;;;4.28;3.10;;;;;;;;;;10249432;28;20055;-73
